Flight Track Log - Related Links

Times and Time Zones

All times are in EDT time to prevent confusion due to time zone crossing. See the N4380Y flight status page for this flight to view local times or setup timezone preferences in your user account.

Time Position Orientation Groundspeed Altitude Reporting Facility
EDT Latitude Longitude Course Direction KTS MPH feet Rate Location/Type
Wed 04:01:50 PM 46.8044 -100.7181 139° Southeast 195 224 6,700  Level Minneapolis Center
Wed 04:02:52 PM 46.7628 -100.6586 136° Southeast 203 234 9,000 2,081 Climbing Minneapolis Center
Wed 04:03:54 PM 46.7192 -100.5978 136° Southeast 218 251 11,000 1,935 Climbing Minneapolis Center
Wed 04:04:56 PM 46.6694 -100.5308 137° Southeast 237 273 13,000 1,984 Climbing Minneapolis Center
Wed 04:05:58 PM 46.6186 -100.4625 137° Southeast 244 281 15,100 2,226 Climbing Minneapolis Center
Wed 04:06:00 PM 46.4673 -100.3343 137° Southeast  Level Estimated
Wed 04:07:00 PM 46.4163 -100.2662 139° Southeast  Level Estimated
Wed 04:07:00 PM 46.5578 -100.3842 138° Southeast 244 281 17,600  Level Minneapolis Center
Wed 04:08:02 PM 46.5094 -100.3192 137° Southeast 241 277 19,600 1,872 Climbing Minneapolis Center
Wed 04:09:05 PM 46.4608 -100.2558 138° Southeast 236 272 21,500 1,728 Climbing Minneapolis Center
Wed 04:10:07 PM 46.4133 -100.1928 138° Southeast 233 268 23,200 1,645 Climbing Minneapolis Center
Wed 04:11:09 PM 46.3633 -100.1300 139° Southeast 235 270 24,900 1,597 Climbing Minneapolis Center
Wed 04:12:11 PM 46.3164 -100.0672 137° Southeast 232 267 26,500 1,500 Climbing Minneapolis Center
Wed 04:13:13 PM 46.2686 -100.0056 138° Southeast 231 266 28,000 1,500 Climbing Minneapolis Center
Wed 04:14:15 PM 46.2122 -99.9333 138° Southeast 227 261 29,600 1,355 Climbing Minneapolis Center
Wed 04:15:17 PM 46.1647 -99.8722 138° Southeast 228 262 30,800 677 Climbing Minneapolis Center
Wed 04:16:19 PM 46.1150 -99.8081 138° Southeast 233 268 31,000 96 Climbing Minneapolis Center
Wed 04:17:22 PM 46.0556 -99.7325 139° Southeast 275 316 31,000  Level Minneapolis Center
Wed 04:18:24 PM 45.9958 -99.6561 138° Southeast 285 328 31,000  Level Minneapolis Center
Wed 04:19:27 PM 45.9342 -99.5772 138° Southeast 289 333 31,000  Level Minneapolis Center
Wed 04:20:29 PM 45.8586 -99.4806 138° Southeast 295 339 31,000  Level Minneapolis Center
Wed 04:21:31 PM 45.7956 -99.4003 138° Southeast 299 344 31,000  Level Minneapolis Center
Wed 04:22:33 PM 45.7325 -99.3194 138° Southeast 301 346 31,000  Level Minneapolis Center
Wed 04:23:35 PM 45.6689 -99.2400 139° Southeast 302 348 31,000  Level Minneapolis Center
Wed 04:24:37 PM 45.6061 -99.1614 139° Southeast 301 346 31,000  Level Minneapolis Center
Wed 04:25:39 PM 45.5428 -99.0817 139° Southeast 302 348 31,000  Level Minneapolis Center
Wed 04:26:41 PM 45.4658 -98.9858 139° Southeast 304 350 31,000  Level Minneapolis Center
Wed 04:27:43 PM 45.4031 -98.9072 139° Southeast 302 348 31,000  Level Minneapolis Center
Wed 04:28:45 PM 45.3400 -98.8294 139° Southeast 300 345 31,000  Level Minneapolis Center
Wed 04:29:48 PM 45.2772 -98.7519 139° Southeast 298 343 31,000  Level Minneapolis Center
Wed 04:30:50 PM 45.2150 -98.6758 139° Southeast 297 342 31,000  Level Minneapolis Center
Wed 04:31:52 PM 45.1522 -98.5981 139° Southeast 298 343 31,000  Level Minneapolis Center
Wed 04:32:54 PM 45.0897 -98.5219 139° Southeast 297 342 31,000  Level Minneapolis Center
Wed 04:33:56 PM 45.0150 -98.4292 139° Southeast 297 342 31,000  Level Minneapolis Center
Wed 04:34:58 PM 44.9589 -98.3617 140° Southeast 296 341 31,000  Level Minneapolis Center
Wed 04:36:00 PM 44.8964 -98.2861 139° Southeast 297 342 31,000  Level Minneapolis Center
Wed 04:37:02 PM 44.8219 -98.1964 139° Southeast 294 338 31,000  Level Minneapolis Center
Wed 04:38:04 PM 44.7597 -98.1225 140° Southeast 295 339 31,000  Level Minneapolis Center
Wed 04:39:06 PM 44.6983 -98.0472 139° Southeast 294 338 31,000  Level Minneapolis Center
Wed 04:40:09 PM 44.6361 -97.9739 140° Southeast 293 337 31,000 -336 Level Minneapolis Center
Wed 04:41:11 PM 44.5739 -97.9000 140° Southeast 294 338 30,300 -1,113 Descending Minneapolis Center
Wed 04:42:13 PM 44.5075 -97.8194 139° Southeast 312 359 28,700 -1,887 Descending Minneapolis Center
Wed 04:43:15 PM 44.4256 -97.7236 140° Southeast 320 368 26,400 -2,032 Descending Minneapolis Center
Wed 04:44:17 PM 44.3583 -97.6444 140° Southeast 318 366 24,500 -1,887 Descending Minneapolis Center
Wed 04:45:19 PM 44.2906 -97.5650 140° Southeast 318 366 22,500 -1,887 Descending Minneapolis Center
Wed 04:46:21 PM 44.2219 -97.4817 139° Southeast 324 373 20,600 -1,887 Descending Minneapolis Center
Wed 04:47:23 PM 44.1439 -97.4092 146° Southeast 333 383 18,600 -2,129 Descending Minneapolis Center
Wed 04:48:25 PM 44.0553 -97.3236 145° Southeast 328 377 16,200 -2,129 Descending Minneapolis Center
Wed 04:49:27 PM 43.9889 -97.2447 139° Southeast 320 368 14,200 -1,935 Descending Minneapolis Center
Wed 04:50:29 PM 43.9225 -97.1633 139° Southeast 320 368 12,200 -1,935 Descending Minneapolis Center
Wed 04:51:31 PM 43.8556 -97.0825 139° Southeast 320 368 10,200 -1,920 Descending Minneapolis Center
Wed 04:52:34 PM 43.7939 -97.0039 137° Southeast 315 362 8,200 -2,112 Descending Minneapolis Center
Wed 04:53:36 PM 43.7242 -96.9203 139° Southeast 299 344 5,800 -1,984 Descending Minneapolis Center
Wed 04:54:38 PM 43.6642 -96.8558 142° Southeast 286 329 4,100 -1,306 Descending Minneapolis Center
Wed 04:55:40 PM 43.6061 -96.7964 143° Southeast 276 318 3,100 -677 Descending Minneapolis Center
Wed 04:56:42 PM 43.5522 -96.7586 153° Southeast 250 288 2,700 -581 Descending Minneapolis Center
Wed 04:57:44 PM 43.5589 -96.7242 75° East 175 201 1,900 -774 Descending Minneapolis Center
Wed 04:59:00 PM 43.5667 -96.7333 324° Northwest  Level FlightAware Approximate
Wed 05:06:00 PM 43.5820 -96.7419 324° Northwest  Level Estimated
Wed 05:07:00 PM 43.5820 -96.7419 324° Northwest  Level Estimated

Login

Don't have an account? Register now (free) for customized features, flight alerts, and more!